Latest Weather Observations for Roxby Downs

IDS60801

Issued at 1:32 pm CST Tuesday 5 May 2015 (issued every 30 minutes, with the page automatically refreshed every 10 minutes)

About weather observations | Map of weather stations | Latest weather observations for SA | Other Formats
Station Details ID: 016096 Name: OLYMPIC DAM AERODROME Lat: -30.48 Lon: 136.88 Height: 98.5 m
Data from the previous 72 hours. | See also: Recent months at Roxby Downs
Date/Time
CST
Temp
°C
App
Temp
°C
Dew
Point
Rel
Hum
%
Delta-T
°C
Wind Press
QNH
hPa
Press
MSL
hPa
Rain
since 9 am
mm
Dir
 
Spd
km/h
Gust
km/h
Spd
kts
Gust
kts
05/01:30pm 19.7 12.5 5.7 40 6.9 SW 33 44 18 24 1016.1 1016.0 0.0
05/01:00pm 19.4 12.1 5.5 40 6.8 SW 33 43 18 23 1016.4 1016.3 0.0
05/12:30pm 19.4 12.9 6.5 43 6.5 WSW 30 41 16 22 1016.6 1016.5 0.0
05/12:09pm 18.7 11.5 5.9 43 6.3 WSW 33 52 18 28 1016.8 1016.7 0.0
05/12:00pm 19.0 11.5 6.1 43 6.4 WSW 35 48 19 26 1017.0 1016.9 0.0
05/11:30am 18.6 11.2 5.1 41 6.6 WSW 33 46 18 25 1017.1 1017.0 0.0
05/11:05am 18.3 11.2 5.5 43 6.3 WSW 32 50 17 27 1017.2 1017.1 0.0
05/11:00am 18.3 11.6 5.8 44 6.1 WSW 30 43 16 23 1017.3 1017.2 0.0
05/10:30am 17.7 11.4 5.6 45 5.9 WSW 28 43 15 23 1017.5 1017.4 0.0
05/10:00am 16.8 9.5 5.4 47 5.5 WSW 33 46 18 25 1017.5 1017.4 0.0
05/09:30am 16.7 10.3 5.0 46 5.6 WSW 28 44 15 24 1017.2 1017.1 0.0
05/09:00am 15.5 8.1 4.8 49 5.0 WSW 33 48 18 26 1016.9 1016.8 0.0
05/08:30am 14.7 9.0 5.0 52 4.6 WSW 24 35 13 19 1016.3 1016.2 0.0
05/08:00am 13.8 8.8 4.7 54 4.2 W 20 32 11 17 1015.6 1015.6 0.0
05/07:30am 13.1 8.1 4.8 57 3.8 WSW 20 32 11 17 1015.3 1015.3 0.0
05/07:00am 12.8 8.0 4.8 58 3.7 WSW 19 26 10 14 1014.9 1014.9 0.0
05/06:30am 13.2 7.8 4.6 56 4.0 WSW 22 30 12 16 1014.7 1014.6 0.0
05/06:00am 13.3 8.3 4.7 56 4.0 WSW 20 28 11 15 1014.4 1014.3 0.0
05/05:30am 13.6 9.4 5.7 59 3.7 WSW 17 24 9 13 1014.2 1014.1 0.0
05/05:00am 14.0 9.5 6.1 59 3.8 WSW 19 28 10 15 1013.9 1013.8 0.0
05/04:30am 14.5 9.8 6.1 57 4.0 WSW 20 30 11 16 1013.8 1013.7 0.0
05/04:00am 14.9 10.4 6.0 55 4.3 WSW 19 26 10 14 1013.8 1013.7 0.0
05/03:30am 15.4 10.6 5.6 52 4.7 WSW 20 30 11 16 1013.7 1013.6 0.0
05/03:00am 15.9 9.9 5.5 50 5.0 WSW 26 39 14 21 1013.8 1013.7 0.0
05/02:43am 16.1 9.8 5.7 50 5.0 WSW 28 46 15 25 1013.9 1013.8 0.0
05/02:30am 16.4 9.3 5.7 49 5.2 SW 32 44 17 24 1013.8 1013.7 0.0
05/02:01am 16.9 9.7 5.8 48 5.4 SW 33 52 18 28 1013.6 1013.5 0.0
05/02:00am 17.0 9.5 6.2 49 5.3 SW 35 52 19 28 1013.5 1013.4 0.0
05/01:55am 17.0 9.5 6.2 49 5.3 WSW 35 54 19 29 1013.6 1013.5 0.0
05/01:30am 17.7 11.2 8.3 54 4.8 SW 32 44 17 24 1013.1 1013.0 0.0
05/01:00am 17.9 10.8 9.5 58 4.4 SW 37 52 20 28 1012.7 1012.6 0.0
05/12:30am 19.0 13.5 10.6 58 4.6 SW 30 50 16 27 1012.5 1012.4 0.0
05/12:27am 19.1 13.2 10.6 58 4.6 SW 32 50 17 27 1012.3 1012.2 0.0
05/12:00am 19.5 13.0 10.5 56 4.9 SW 35 50 19 27 1012.1 1012.0 0.0
 
Date/Time
CST
Temp
°C
App
Temp
°C
Dew
Point
Rel
Hum
%
Delta-T
°C
Wind Press
QNH
hPa
Press
MSL
hPa
Rain
since 9 am
mm
Dir
 
Spd
km/h
Gust
km/h
Spd
kts
Gust
kts
04/11:35pm 21.4 17.1 10.9 51 5.8 WSW 24 54 13 29 1011.3 1011.2 0.0
04/11:30pm 22.3 20.2 12.5 53 5.6 W 15 20 8 11 1010.8 1010.7 0.0
04/11:00pm 24.4 20.2 9.9 40 8.0 W 22 32 12 17 1010.9 1010.8 0.0
04/10:30pm 24.2 21.7 9.8 40 7.9 W 13 19 7 10 1010.7 1010.6 0.0
04/10:00pm 23.4 19.8 2.8 26 9.9 WNW 11 15 6 8 1010.8 1010.7 0.0
04/09:30pm 23.8 19.8 0.2 21 10.9 WNW 11 17 6 9 1010.2 1010.1 0.0
04/09:00pm 24.1 20.0 -0.2 20 11.1 NNW 11 15 6 8 1010.1 1010.0 0.0
04/08:30pm 24.4 19.3 0.7 21 11.1 WNW 17 26 9 14 1010.1 1010.0 0.0
04/08:00pm 25.4 19.5 1.5 21 11.4 N 22 30 12 16 1008.9 1008.8 0.0
04/07:30pm 26.0 20.4 1.3 20 11.8 NNE 20 28 11 15 1008.7 1008.6 0.0
04/07:00pm 27.2 21.3 -0.8 16 13.0 N 20 28 11 15 1008.3 1008.2 0.0
04/06:30pm 27.8 21.8 -1.2 15 13.4 N 20 28 11 15 1008.1 1008.0 0.0
04/06:00pm 28.3 22.6 -0.8 15 13.6 N 19 26 10 14 1008.2 1008.1 0.0
04/05:30pm 29.0 22.7 -1.2 14 14.1 NNW 22 30 12 16 1008.2 1008.1 0.0
04/05:00pm 29.5 22.8 -0.8 14 14.3 N 24 33 13 18 1008.4 1008.3 0.0
04/04:30pm 29.9 22.0 -1.5 13 14.7 NNW 30 41 16 22 1008.6 1008.5 0.0
04/04:00pm 29.9 21.9 -2.6 12 14.9 NNW 30 43 16 23 1008.6 1008.5 0.0
04/03:30pm 30.5 22.1 -2.1 12 15.2 NNW 32 43 17 23 1008.8 1008.7 0.0
04/03:00pm 30.1 21.7 -2.4 12 15.0 NNW 32 46 17 25 1008.8 1008.7 0.0
04/02:30pm 29.7 21.4 -1.6 13 14.6 NNW 32 46 17 25 1009.1 1009.0 0.0
04/02:10pm 29.6 22.2 -0.7 14 14.3 NNW 28 46 15 25 1009.2 1009.1 0.0
04/02:00pm 29.6 21.8 -0.7 14 14.3 N 30 41 16 22 1009.3 1009.2 0.0
04/01:30pm 28.9 20.5 -1.2 14 14.0 N 33 50 18 27 1010.1 1010.0 0.0
04/01:21pm 29.0 20.8 -1.2 14 14.1 N 32 50 17 27 1010.2 1010.1 0.0
04/01:00pm 28.3 20.2 0.9 17 13.2 N 33 44 18 24 1010.7 1010.6 0.0
04/12:30pm 27.4 19.3 1.0 18 12.7 N 33 46 18 25 1011.3 1011.2 0.0
04/12:00pm 26.6 18.7 1.1 19 12.2 N 32 43 17 23 1012.0 1011.9 0.0
04/11:36am 26.1 18.0 0.7 19 12.0 N 33 54 18 29 1012.7 1012.6 0.0
04/11:30am 26.3 17.8 0.9 19 12.1 N 35 50 19 27 1012.9 1012.8 0.0
04/11:22am 26.2 18.3 0.8 19 12.0 N 32 50 17 27 1012.8 1012.7 0.0
04/11:00am 25.9 17.7 0.5 19 11.9 N 33 43 18 23 1013.4 1013.3 0.0
04/10:30am 25.4 17.2 0.1 19 11.7 N 33 46 18 25 1013.7 1013.6 0.0
04/10:00am 24.1 16.8 -0.2 20 11.1 N 28 39 15 21 1013.9 1013.8 0.0
04/09:30am 22.2 14.4 -0.5 22 10.2 N 30 37 16 20 1014.2 1014.1 0.0
04/09:00am 21.0 14.0 -0.3 24 9.5 N 26 33 14 18 1014.4 1014.3 0.0
04/08:30am 19.5 13.6 -0.5 26 8.7 N 20 30 11 16 1014.2 1014.1 0.0
04/08:00am 17.4 12.5 -0.8 29 7.8 N 15 20 8 11 1014.3 1014.2 0.0
04/07:30am 15.3 10.7 -1.3 32 6.9 N 13 17 7 9 1014.2 1014.1 0.0
04/07:00am 14.1 9.4 -1.5 34 6.4 NNE 13 17 7 9 1014.3 1014.2 0.0
04/06:30am 14.5 9.4 -1.6 33 6.6 NNE 15 17 8 9 1014.2 1014.1 0.0
04/06:00am 14.1 9.0 -1.9 33 6.5 NNE 15 17 8 9 1014.0 1013.9 0.0
04/05:30am 14.4 9.7 -1.6 33 6.5 NNE 13 15 7 8 1014.1 1014.0 0.0
04/05:00am 15.0 10.3 -1.5 32 6.8 NNE 13 15 7 8 1014.1 1014.0 0.0
04/04:30am 15.1 10.8 -1.5 32 6.8 NNE 11 13 6 7 1014.0 1013.9 0.0
04/04:00am 15.5 11.2 -1.5 31 7.0 N 11 13 6 7 1014.1 1014.0 0.0
04/03:30am 15.8 11.5 -1.7 30 7.2 N 11 13 6 7 1014.2 1014.1 0.0
04/03:00am 16.7 12.1 -1.4 29 7.6 N 13 15 7 8 1014.3 1014.2 0.0
04/02:30am 16.9 11.5 -1.2 29 7.6 N 17 20 9 11 1014.4 1014.3 0.0
04/02:00am 16.1 11.5 -1.0 31 7.2 N 13 15 7 8 1014.8 1014.7 0.0
04/01:30am 15.7 11.1 -0.9 32 6.9 NNE 13 15 7 8 1015.1 1015.1 0.0
04/01:00am 15.7 11.1 -0.9 32 7.0 NNE 13 15 7 8 1015.6 1015.6 0.0
04/12:30am 15.6 11.4 -0.6 33 6.8 N 11 13 6 7 1016.1 1016.0 0.0
04/12:00am 15.7 11.9 -0.5 33 6.8 NNE 9 11 5 6 1016.2 1016.1 0.0
 
Date/Time
CST
Temp
°C
App
Temp
°C
Dew
Point
Rel
Hum
%
Delta-T
°C
Wind Press
QNH
hPa
Press
MSL
hPa
Rain
since 9 am
mm
Dir
 
Spd
km/h
Gust
km/h
Spd
kts
Gust
kts
03/11:30pm 15.9 11.8 -0.3 33 6.9 NE 11 13 6 7 1016.4 1016.3 0.0
03/11:00pm 16.2 12.1 -0.1 33 7.0 NE 11 13 6 7 1016.6 1016.5 0.0
03/10:30pm 14.6 11.2 1.8 42 5.6 NNE 9 11 5 6 1016.8 1016.7 0.0
03/10:00pm 15.5 12.1 1.6 39 6.1 N 9 9 5 5 1017.0 1016.9 0.0
03/09:30pm 15.9 12.5 1.6 38 6.3 N 9 11 5 6 1017.0 1016.9 0.0
03/09:00pm 16.1 12.7 1.8 38 6.4 NNE 9 11 5 6 1016.9 1016.8 0.0
03/08:30pm 15.6 12.2 2.1 40 6.0 NE 9 13 5 7 1016.8 1016.7 0.0
03/08:00pm 16.0 14.4 2.4 40 6.1 CALM 0 0 0 0 1016.6 1016.5 0.0
03/07:30pm 16.7 15.0 2.0 37 6.6 CALM 0 0 0 0 1016.4 1016.3 0.0
03/07:00pm 18.0 16.4 2.7 36 7.1 CALM 0 0 0 0 1016.2 1016.1 0.0
03/06:30pm 19.7 17.9 1.2 29 8.4 CALM 0 0 0 0 1015.8 1015.8 0.0
03/06:00pm 22.6 19.3 0.4 23 10.1 NW 7 7 4 4 1015.6 1015.6 0.0
03/05:30pm 25.2 21.9 0.0 19 11.7 NNW 7 13 4 7 1015.5 1015.5 0.0
03/05:00pm 26.2 22.1 0.0 18 12.2 NNW 11 17 6 9 1015.6 1015.6 0.0
03/04:30pm 26.6 22.5 -0.4 17 12.5 NW 11 19 6 10 1015.8 1015.8 0.0
03/04:00pm 26.7 23.1 0.4 18 12.4 NW 9 15 5 8 1016.0 1015.9 0.0
03/03:30pm 26.3 23.0 0.1 18 12.2 NNE 7 15 4 8 1016.0 1015.9 0.0
03/03:00pm 26.5 23.0 1.0 19 12.1 NNE 9 15 5 8 1016.3 1016.2 0.0
03/02:30pm 26.0 22.0 0.6 19 11.9 NNW 11 20 6 11 1016.6 1016.5 0.0
03/02:00pm 25.8 21.8 0.5 19 11.9 NNW 11 19 6 10 1017.0 1016.9 0.0
03/01:30pm 25.3 21.7 0.7 20 11.5 NW 9 20 5 11 1017.6 1017.5 0.0
03/01:00pm 25.1 20.7 0.6 20 11.5 NNW 13 20 7 11 1018.0 1017.9 0.0
03/12:30pm 24.5 20.9 0.8 21 11.1 NW 9 20 5 11 1018.4 1018.3 0.0
03/12:00pm 24.0 20.2 1.6 23 10.6 NNE 11 17 6 9 1019.3 1019.2 0.0
03/11:30am 24.0 20.8 2.8 25 10.2 NNE 9 17 5 9 1019.8 1019.7 0.0
03/11:00am 23.5 20.5 4.0 28 9.6 NE 9 15 5 8 1020.1 1020.0 0.0
03/10:30am 22.6 20.0 6.0 34 8.4 NE 9 17 5 9 1020.6 1020.5 0.0
03/10:00am 21.2 18.3 6.3 38 7.5 NE 11 15 6 8 1020.6 1020.5 0.0
03/09:30am 20.4 18.2 6.4 40 7.0 NE 7 11 4 6 1020.6 1020.5 0.0
03/09:00am 18.6 16.7 6.8 46 5.9 ESE 6 7 3 4 1020.6 1020.5 0.0
03/08:30am 16.7 15.6 6.8 52 4.9 ESE 2 9 1 5 1020.3 1020.2 0.0
03/08:00am 13.5 12.5 5.4 58 3.8 CALM 0 0 0 0 1020.2 1020.1 0.0
03/07:30am 10.8 9.7 4.9 67 2.7 CALM 0 4 0 2 1020.2 1020.1 0.0
03/07:00am 9.5 8.2 4.3 70 2.3 CALM 0 0 0 0 1019.9 1019.8 0.0
03/06:30am 10.8 9.7 4.9 67 2.7 CALM 0 0 0 0 1019.6 1019.5 0.0
03/06:00am 10.9 9.6 4.1 63 3.0 CALM 0 0 0 0 1019.2 1019.1 0.0
03/05:30am 12.2 11.0 4.4 59 3.5 CALM 0 0 0 0 1019.0 1018.9 0.0
03/05:00am 12.9 11.6 4.3 56 3.9 CALM 0 0 0 0 1018.8 1018.7 0.0
03/04:30am 13.2 12.0 4.4 55 4.0 CALM 0 0 0 0 1018.9 1018.8 0.0
03/04:00am 12.7 11.4 4.2 56 3.9 CALM 0 0 0 0 1018.7 1018.6 0.0
03/03:30am 12.0 10.7 4.2 59 3.5 CALM 0 0 0 0 1018.8 1018.7 0.0
03/03:00am 11.3 10.0 4.1 61 3.2 CALM 0 0 0 0 1018.5 1018.4 0.0
03/02:30am 11.3 9.9 3.8 60 3.3 CALM 0 0 0 0 1018.7 1018.6 0.0
03/02:00am 11.1 9.7 3.4 59 3.4 CALM 0 0 0 0 1018.9 1018.8 0.0
03/01:30am 11.5 10.1 3.5 58 3.5 CALM 0 0 0 0 1019.1 1019.0 0.0
03/01:00am 12.4 11.0 3.6 55 3.9 CALM 0 0 0 0 1019.0 1018.9 0.0
03/12:30am 13.1 10.4 3.7 53 4.2 SSE 7 7 4 4 1019.1 1019.0 0.0
03/12:00am 13.6 11.0 3.1 49 4.7 SE 6 7 3 4 1019.3 1019.2 0.0
 
Date/Time
CST
Temp
°C
App
Temp
°C
Dew
Point
Rel
Hum
%
Delta-T
°C
Wind Press
QNH
hPa
Press
MSL
hPa
Rain
since 9 am
mm
Dir
 
Spd
km/h
Gust
km/h
Spd
kts
Gust
kts
02/11:30pm 14.5 13.1 3.6 48 5.0 CALM 0 0 0 0 1019.5 1019.4 0.0
02/11:00pm 14.9 13.5 3.7 47 5.1 CALM 0 0 0 0 1019.6 1019.5 0.0
02/10:30pm 15.2 13.6 2.4 42 5.7 CALM 0 0 0 0 1019.6 1019.5 0.0
02/10:00pm 15.6 13.9 2.1 40 6.0 CALM 0 0 0 0 1019.4 1019.3 0.0
02/09:30pm 16.9 14.1 1.8 36 6.8 S 6 7 3 4 1019.4 1019.3 0.0
02/09:00pm 17.8 14.2 0.5 31 7.6 SSE 9 9 5 5 1019.2 1019.1 0.0
02/08:30pm 19.0 14.9 0.1 28 8.3 SSW 11 13 6 7 1019.2 1019.1 0.0
02/08:00pm 19.3 15.2 -0.1 27 8.5 SSW 11 13 6 7 1019.0 1018.9 0.0
02/07:30pm 19.0 15.7 0.1 28 8.3 S 7 9 4 5 1018.7 1018.6 0.0
02/07:00pm 20.1 16.9 -0.5 25 9.1 SSW 6 7 3 4 1018.7 1018.6 0.0
02/06:30pm 20.9 16.7 -1.0 23 9.6 SSW 11 11 6 6 1018.5 1018.4 0.0
02/06:00pm 21.6 17.7 -1.6 21 10.1 SW 9 11 5 6 1018.4 1018.3 0.0
02/05:30pm 22.9 18.9 -2.6 18 11.0 SSW 9 13 5 7 1018.2 1018.1 0.0
02/05:00pm 23.7 18.9 -2.8 17 11.5 SSW 13 15 7 8 1018.0 1017.9 0.0
02/04:30pm 24.2 19.8 -2.4 17 11.7 SW 11 15 6 8 1017.8 1017.7 0.0
02/04:00pm 25.0 20.5 -3.4 15 12.3 WSW 11 17 6 9 1017.9 1017.8 0.0
02/03:30pm 25.4 20.5 -3.1 15 12.4 WSW 13 22 7 12 1017.9 1017.8 0.0
02/03:00pm 25.8 22.2 -3.7 14 12.8 SW 6 17 3 9 1018.1 1018.0 0.0
02/02:30pm 25.1 20.9 -4.2 14 12.5 SW 9 17 5 9 1017.9 1017.8 0.0
02/02:00pm 24.8 20.2 -4.5 14 12.4 WSW 11 19 6 10 1018.3 1018.2 0.0

Other Formats:

Comma delimited format used in spreadsheet applications
http://www.bom.gov.au/fwo/IDS60801/IDS60801.95658.axf

JavaScript Object Notation format (JSON) in row-major order
http://www.bom.gov.au/fwo/IDS60801/IDS60801.95658.json